Aeroporto :
LOGIN :

Iscrizione | Disclaimer

   EN    FR    IT 

 










Sommario :    VFR   VFR Marginale   IFR   IFR Intensivo   IFR Molto Intensivo
Visibilità : 
Base nubi : 
>= 8 km
>= 3000ft
5 / 8 km
1000 / 3000 ft
1500m / 5 km
500 / 1000 ft
800 / 1500m
200 / 500 ft
< 800m
< 200 ft
Simboli :   Temporali  Nebbia  Neve Forte  Precipitazioni Forti  Vento > 20 kt
SIGMETs :   Varie  Temporali  Ghiacco  Turbolenza  Onda orograficha  Ceneri Vulcaniche







- Altitudine del aeroporto : 160 ft
- Codice IATA : FMO


EDDG - Münster Osnabrück Int.

ULTIMO METAR :
  • 121550Z 23007KT 9999 SCT011 SCT060 02/00 Q1009 BECMG SCT010

METARs OBSOLETI :
  • 121520Z 23009KT 9999 SCT011 SCT060 02/01 Q1009 BECMG SCT010
  • 121450Z 24011KT 9999 BKN011 BKN030 02/01 Q1008 BECMG SCT010
  • 121420Z 24010KT 9999 BKN011 BKN030 03/01 Q1007 BECMG SCT010
  • 121350Z 24011KT 9999 BKN011 BKN030 02/01 Q1007 BECMG SCT010
  • 121320Z 24011KT 9999 -RA FEW007 BKN011 02/01 Q1006 BECMG SCT010

TAF TAF EDDG
Valido dal 12 a 12 ore il 13 a 12 ore UTC


121100Z 1212/1312 26012KT 9999 BKN012
TEMPO 1212/1215 4000 SHRA BKN010TCU
BECMG 1212/1216 BKN020
BECMG 1215/1218 20009KT
TEMPO 1216/1220 SCT008 BKN010
BECMG 1308/1311 18015G25KT
TEMPO 1309/1312 RA BKN009
Nessun NOTAM noto per questo aeroporto.



MetMap, La meteo Aeronautica in un colpo d'occhio ! - Copyright ORBIFLY Dicembre 2007 - Disclaimer

ORBIFLY MET'MAP TEAM :

Programmazione e sviluppo : Alexandra Zaïnal
Concezione e sviluppo : Baudouin d'Aumeries
Co-Programmazione e sviluppo : Marc-Olivier Méhu
Supporto tecnico e logistico : Manuel Goepfert
Aiuto per la traduzione : Arnaldo La Scala

Contatto : metmap@orbifly.com




FONTI E CREDITI :

   NOAA